createdAt,value
2019-03-18T00:00:04.897Z,28
2019-03-18T00:15:04.734Z,27
2019-03-18T00:30:04.748Z,28
2019-03-18T00:45:20.805Z,28
2019-03-18T01:00:05.282Z,28
2019-03-18T01:15:05.179Z,28
2019-03-18T01:30:04.890Z,27
2019-03-18T01:45:04.765Z,27
2019-03-18T02:00:04.205Z,27
2019-03-18T02:15:04.232Z,27
2019-03-18T02:30:04.367Z,27
2019-03-18T02:45:04.201Z,27
2019-03-18T03:00:05.063Z,28
2019-03-18T03:15:05.007Z,28
2019-03-18T03:30:05.309Z,27
2019-03-18T03:45:04.523Z,28
2019-03-18T04:00:04.292Z,28
2019-03-18T04:15:04.764Z,29
2019-03-18T04:30:04.762Z,28
2019-03-18T04:45:04.538Z,28
2019-03-18T05:00:04.346Z,28
2019-03-18T05:15:09.807Z,28
2019-03-18T05:30:04.556Z,28
2019-03-18T05:45:04.893Z,29
2019-03-18T06:00:04.650Z,30
2019-03-18T06:15:05.049Z,29
2019-03-18T06:30:04.711Z,31
2019-03-18T06:45:05.068Z,29
2019-03-18T07:00:07.208Z,28
2019-03-18T07:15:04.586Z,28
2019-03-18T07:30:04.698Z,28
2019-03-18T07:45:04.545Z,28
2019-03-18T08:00:04.345Z,28
2019-03-18T08:15:05.081Z,28
2019-03-18T08:30:04.688Z,27
2019-03-18T08:45:04.488Z,28
2019-03-18T09:00:04.740Z,27
2019-03-18T09:15:04.570Z,29
2019-03-18T09:30:04.630Z,28
2019-03-18T09:45:05.038Z,28
2019-03-18T10:00:04.322Z,28
2019-03-18T10:15:05.094Z,28
2019-03-18T10:30:05.246Z,28
2019-03-18T10:45:04.306Z,28
2019-03-18T11:00:05.096Z,27
2019-03-18T11:15:04.398Z,27
2019-03-18T11:30:06.035Z,28
2019-03-18T11:45:04.624Z,29
2019-03-18T12:00:10.473Z,29
2019-03-18T12:15:04.361Z,28
2019-03-18T12:30:04.461Z,28
2019-03-18T12:45:04.237Z,29
2019-03-18T13:00:04.493Z,30
2019-03-18T13:15:05.589Z,30
2019-03-18T13:30:04.196Z,28
2019-03-18T13:45:05.164Z,29
2019-03-18T14:00:04.521Z,29
2019-03-18T14:15:04.782Z,28
2019-03-18T14:30:04.260Z,29
2019-03-18T14:45:05.018Z,29
2019-03-18T15:00:04.351Z,32
2019-03-18T15:15:04.707Z,27
2019-03-18T15:30:04.721Z,30
2019-03-18T15:45:05.067Z,29
2019-03-18T16:00:04.829Z,30
2019-03-18T16:15:05.098Z,31
2019-03-18T16:30:04.578Z,29
2019-03-18T16:45:04.358Z,29
2019-03-18T17:00:04.186Z,30
2019-03-18T17:15:05.188Z,32
2019-03-18T17:30:04.989Z,31
2019-03-18T17:45:04.727Z,29
2019-03-18T18:00:04.637Z,31
2019-03-18T18:15:04.873Z,31
2019-03-18T18:30:04.874Z,32
2019-03-18T18:45:05.114Z,32
2019-03-18T19:00:04.857Z,33
2019-03-18T19:15:04.214Z,32
2019-03-18T19:30:04.215Z,31
2019-03-18T19:45:04.986Z,33
2019-03-18T20:00:05.753Z,35
2019-03-18T20:15:05.030Z,34
2019-03-18T20:30:04.719Z,33
2019-03-18T20:45:04.484Z,31
2019-03-18T21:00:05.023Z,31
2019-03-18T21:15:04.785Z,30
2019-03-18T21:30:05.053Z,30
2019-03-18T21:45:04.404Z,31
2019-03-18T22:00:04.151Z,30
2019-03-18T22:15:04.511Z,30
2019-03-18T22:30:04.448Z,29
2019-03-18T22:45:04.888Z,31
2019-03-18T23:00:04.675Z,30
2019-03-18T23:15:05.011Z,30
2019-03-18T23:30:04.669Z,31
2019-03-18T23:45:04.552Z,31
